sensor_id;sensor_type;location;lat;lon;timestamp;P1;durP1;ratioP1;P2;durP2;ratioP2
78205;SDS011;67480;48.920;12.880;2023-07-29T00:00:37;4.07;;;3.00;;
78205;SDS011;67480;48.920;12.880;2023-07-29T00:03:02;3.15;;;2.85;;
78205;SDS011;67480;48.920;12.880;2023-07-29T00:05:28;3.70;;;3.05;;
78205;SDS011;67480;48.920;12.880;2023-07-29T00:07:53;3.55;;;2.80;;
78205;SDS011;67480;48.920;12.880;2023-07-29T00:10:18;4.00;;;3.00;;
78205;SDS011;67480;48.920;12.880;2023-07-29T00:12:44;3.20;;;2.90;;
78205;SDS011;67480;48.920;12.880;2023-07-29T00:15:09;4.45;;;2.90;;
78205;SDS011;67480;48.920;12.880;2023-07-29T00:17:36;4.47;;;3.10;;
78205;SDS011;67480;48.920;12.880;2023-07-29T00:20:01;5.20;;;3.15;;
78205;SDS011;67480;48.920;12.880;2023-07-29T00:22:27;5.65;;;3.30;;
78205;SDS011;67480;48.920;12.880;2023-07-29T00:24:53;4.00;;;3.00;;
78205;SDS011;67480;48.920;12.880;2023-07-29T00:27:23;3.85;;;2.65;;
78205;SDS011;67480;48.920;12.880;2023-07-29T00:29:48;3.10;;;2.80;;
78205;SDS011;67480;48.920;12.880;2023-07-29T00:32:14;3.35;;;2.80;;
78205;SDS011;67480;48.920;12.880;2023-07-29T00:34:39;3.88;;;2.40;;
78205;SDS011;67480;48.920;12.880;2023-07-29T00:37:05;3.40;;;3.10;;
78205;SDS011;67480;48.920;12.880;2023-07-29T00:39:31;2.80;;;2.47;;
78205;SDS011;67480;48.920;12.880;2023-07-29T00:41:57;2.80;;;2.50;;
78205;SDS011;67480;48.920;12.880;2023-07-29T00:44:23;4.43;;;2.85;;
78205;SDS011;67480;48.920;12.880;2023-07-29T00:46:49;5.38;;;2.42;;
78205;SDS011;67480;48.920;12.880;2023-07-29T00:49:16;3.63;;;2.60;;
78205;SDS011;67480;48.920;12.880;2023-07-29T00:51:42;2.75;;;2.20;;
78205;SDS011;67480;48.920;12.880;2023-07-29T00:54:07;5.05;;;2.63;;
78205;SDS011;67480;48.920;12.880;2023-07-29T00:56:33;2.78;;;2.53;;
78205;SDS011;67480;48.920;12.880;2023-07-29T00:58:58;4.00;;;2.78;;
78205;SDS011;67480;48.920;12.880;2023-07-29T01:01:27;2.95;;;2.60;;
78205;SDS011;67480;48.920;12.880;2023-07-29T01:03:53;2.85;;;2.50;;
78205;SDS011;67480;48.920;12.880;2023-07-29T01:09:14;3.70;;;2.35;;
78205;SDS011;67480;48.920;12.880;2023-07-29T01:14:27;5.07;;;3.92;;
78205;SDS011;67480;48.920;12.880;2023-07-29T01:17:03;4.00;;;3.28;;
78205;SDS011;67480;48.920;12.880;2023-07-29T01:22:07;6.40;;;2.72;;
78205;SDS011;67480;48.920;12.880;2023-07-29T01:24:33;3.10;;;2.50;;
78205;SDS011;67480;48.920;12.880;2023-07-29T01:26:58;3.85;;;3.08;;
78205;SDS011;67480;48.920;12.880;2023-07-29T01:29:29;2.95;;;2.75;;
78205;SDS011;67480;48.920;12.880;2023-07-29T01:31:55;4.78;;;3.00;;
78205;SDS011;67480;48.920;12.880;2023-07-29T01:34:26;3.97;;;3.53;;
78205;SDS011;67480;48.920;12.880;2023-07-29T01:36:57;3.35;;;3.05;;
78205;SDS011;67480;48.920;12.880;2023-07-29T01:39:25;3.58;;;2.72;;
78205;SDS011;67480;48.920;12.880;2023-07-29T01:41:54;3.53;;;2.75;;
78205;SDS011;67480;48.920;12.880;2023-07-29T01:44:19;5.25;;;3.22;;
78205;SDS011;67480;48.920;12.880;2023-07-29T01:46:45;3.35;;;3.05;;
78205;SDS011;67480;48.920;12.880;2023-07-29T01:49:11;4.07;;;3.05;;
78205;SDS011;67480;48.920;12.880;2023-07-29T01:51:37;2.90;;;2.70;;
78205;SDS011;67480;48.920;12.880;2023-07-29T01:54:03;3.50;;;3.15;;
78205;SDS011;67480;48.920;12.880;2023-07-29T01:56:28;6.47;;;3.00;;
78205;SDS011;67480;48.920;12.880;2023-07-29T01:58:53;4.50;;;2.88;;
78205;SDS011;67480;48.920;12.880;2023-07-29T02:01:19;4.72;;;3.08;;
78205;SDS011;67480;48.920;12.880;2023-07-29T02:03:44;5.30;;;3.10;;
78205;SDS011;67480;48.920;12.880;2023-07-29T02:06:10;4.10;;;3.20;;
78205;SDS011;67480;48.920;12.880;2023-07-29T02:08:35;5.05;;;3.25;;
78205;SDS011;67480;48.920;12.880;2023-07-29T02:11:00;5.28;;;3.40;;
78205;SDS011;67480;48.920;12.880;2023-07-29T02:16:32;3.55;;;3.15;;
78205;SDS011;67480;48.920;12.880;2023-07-29T02:18:59;4.68;;;3.72;;
78205;SDS011;67480;48.920;12.880;2023-07-29T02:21:24;4.63;;;3.47;;
78205;SDS011;67480;48.920;12.880;2023-07-29T02:23:50;4.97;;;3.38;;
78205;SDS011;67480;48.920;12.880;2023-07-29T02:26:16;3.92;;;3.55;;
78205;SDS011;67480;48.920;12.880;2023-07-29T02:28:41;4.75;;;3.33;;
78205;SDS011;67480;48.920;12.880;2023-07-29T02:31:23;6.88;;;3.78;;
78205;SDS011;67480;48.920;12.880;2023-07-29T02:33:49;3.83;;;3.47;;
78205;SDS011;67480;48.920;12.880;2023-07-29T02:36:15;4.40;;;4.00;;
78205;SDS011;67480;48.920;12.880;2023-07-29T02:38:42;4.32;;;3.90;;
78205;SDS011;67480;48.920;12.880;2023-07-29T02:41:08;5.57;;;3.83;;
78205;SDS011;67480;48.920;12.880;2023-07-29T02:43:34;5.93;;;5.35;;
78205;SDS011;67480;48.920;12.880;2023-07-29T02:46:00;7.07;;;6.38;;
78205;SDS011;67480;48.920;12.880;2023-07-29T02:48:29;7.03;;;6.38;;
78205;SDS011;67480;48.920;12.880;2023-07-29T02:50:55;9.80;;;6.93;;
78205;SDS011;67480;48.920;12.880;2023-07-29T02:53:21;8.07;;;7.32;;
78205;SDS011;67480;48.920;12.880;2023-07-29T02:55:48;8.50;;;7.70;;
78205;SDS011;67480;48.920;12.880;2023-07-29T02:58:13;10.15;;;9.15;;
78205;SDS011;67480;48.920;12.880;2023-07-29T03:00:39;9.25;;;7.55;;
78205;SDS011;67480;48.920;12.880;2023-07-29T03:03:07;8.95;;;8.00;;
78205;SDS011;67480;48.920;12.880;2023-07-29T03:05:33;9.27;;;7.88;;
78205;SDS011;67480;48.920;12.880;2023-07-29T03:07:58;11.70;;;10.57;;
78205;SDS011;67480;48.920;12.880;2023-07-29T03:10:23;10.45;;;9.45;;
78205;SDS011;67480;48.920;12.880;2023-07-29T03:12:49;12.23;;;11.02;;
78205;SDS011;67480;48.920;12.880;2023-07-29T03:15:14;11.80;;;10.60;;
78205;SDS011;67480;48.920;12.880;2023-07-29T03:17:40;11.35;;;10.25;;
78205;SDS011;67480;48.920;12.880;2023-07-29T03:20:05;11.88;;;10.68;;
78205;SDS011;67480;48.920;12.880;2023-07-29T03:22:31;11.85;;;10.35;;
78205;SDS011;67480;48.920;12.880;2023-07-29T03:24:56;12.70;;;10.23;;
78205;SDS011;67480;48.920;12.880;2023-07-29T03:27:22;11.25;;;10.15;;
78205;SDS011;67480;48.920;12.880;2023-07-29T03:29:47;13.75;;;11.05;;
78205;SDS011;67480;48.920;12.880;2023-07-29T03:32:13;11.98;;;10.38;;
78205;SDS011;67480;48.920;12.880;2023-07-29T03:34:38;10.68;;;9.60;;
78205;SDS011;67480;48.920;12.880;2023-07-29T03:37:05;14.02;;;12.52;;
78205;SDS011;67480;48.920;12.880;2023-07-29T03:39:31;17.83;;;15.93;;
78205;SDS011;67480;48.920;12.880;2023-07-29T03:41:57;16.35;;;13.85;;
78205;SDS011;67480;48.920;12.880;2023-07-29T03:44:23;12.35;;;10.60;;
78205;SDS011;67480;48.920;12.880;2023-07-29T03:46:48;13.00;;;11.70;;
78205;SDS011;67480;48.920;12.880;2023-07-29T03:49:14;12.57;;;11.30;;
78205;SDS011;67480;48.920;12.880;2023-07-29T03:51:39;12.32;;;11.07;;
78205;SDS011;67480;48.920;12.880;2023-07-29T03:54:05;13.85;;;12.38;;
78205;SDS011;67480;48.920;12.880;2023-07-29T03:56:31;20.58;;;16.52;;
78205;SDS011;67480;48.920;12.880;2023-07-29T03:59:03;16.38;;;12.05;;
78205;SDS011;67480;48.920;12.880;2023-07-29T04:01:29;15.13;;;13.57;;
78205;SDS011;67480;48.920;12.880;2023-07-29T04:03:55;16.90;;;14.88;;
78205;SDS011;67480;48.920;12.880;2023-07-29T04:06:20;13.32;;;11.10;;
78205;SDS011;67480;48.920;12.880;2023-07-29T04:08:46;12.20;;;9.98;;
78205;SDS011;67480;48.920;12.880;2023-07-29T04:11:11;14.65;;;12.77;;
78205;SDS011;67480;48.920;12.880;2023-07-29T04:13:37;18.08;;;14.60;;
78205;SDS011;67480;48.920;12.880;2023-07-29T04:16:03;14.20;;;12.63;;
78205;SDS011;67480;48.920;12.880;2023-07-29T04:18:29;15.02;;;12.82;;
78205;SDS011;67480;48.920;12.880;2023-07-29T04:20:54;17.63;;;13.35;;
78205;SDS011;67480;48.920;12.880;2023-07-29T04:23:20;14.30;;;12.70;;
78205;SDS011;67480;48.920;12.880;2023-07-29T04:25:45;12.88;;;11.07;;
78205;SDS011;67480;48.920;12.880;2023-07-29T04:28:11;14.43;;;12.85;;
78205;SDS011;67480;48.920;12.880;2023-07-29T04:30:36;13.43;;;11.57;;
78205;SDS011;67480;48.920;12.880;2023-07-29T04:33:02;12.55;;;10.80;;
78205;SDS011;67480;48.920;12.880;2023-07-29T04:35:27;12.95;;;11.35;;
78205;SDS011;67480;48.920;12.880;2023-07-29T04:37:53;12.95;;;11.55;;
78205;SDS011;67480;48.920;12.880;2023-07-29T04:40:18;11.75;;;10.55;;
78205;SDS011;67480;48.920;12.880;2023-07-29T04:42:43;12.55;;;10.88;;
78205;SDS011;67480;48.920;12.880;2023-07-29T04:45:09;13.05;;;11.65;;
78205;SDS011;67480;48.920;12.880;2023-07-29T04:47:35;12.35;;;11.07;;
78205;SDS011;67480;48.920;12.880;2023-07-29T04:50:00;12.57;;;10.63;;
78205;SDS011;67480;48.920;12.880;2023-07-29T04:52:26;12.15;;;10.70;;
78205;SDS011;67480;48.920;12.880;2023-07-29T04:54:51;14.50;;;11.13;;
78205;SDS011;67480;48.920;12.880;2023-07-29T04:57:17;12.55;;;11.25;;
78205;SDS011;67480;48.920;12.880;2023-07-29T04:59:42;12.90;;;11.07;;
78205;SDS011;67480;48.920;12.880;2023-07-29T05:02:07;12.88;;;10.60;;
78205;SDS011;67480;48.920;12.880;2023-07-29T05:04:33;16.63;;;13.07;;
78205;SDS011;67480;48.920;12.880;2023-07-29T05:06:58;14.25;;;12.77;;
78205;SDS011;67480;48.920;12.880;2023-07-29T05:09:24;13.13;;;10.98;;
78205;SDS011;67480;48.920;12.880;2023-07-29T05:11:49;11.45;;;10.25;;
78205;SDS011;67480;48.920;12.880;2023-07-29T05:14:15;12.88;;;11.23;;
78205;SDS011;67480;48.920;12.880;2023-07-29T05:16:41;16.90;;;14.75;;
78205;SDS011;67480;48.920;12.880;2023-07-29T05:19:07;12.43;;;10.18;;
78205;SDS011;67480;48.920;12.880;2023-07-29T05:21:33;13.68;;;10.07;;
78205;SDS011;67480;48.920;12.880;2023-07-29T05:23:59;11.80;;;10.55;;
78205;SDS011;67480;48.920;12.880;2023-07-29T05:26:24;11.52;;;10.32;;
78205;SDS011;67480;48.920;12.880;2023-07-29T05:28:50;13.30;;;11.55;;
78205;SDS011;67480;48.920;12.880;2023-07-29T05:31:15;13.35;;;10.63;;
78205;SDS011;67480;48.920;12.880;2023-07-29T05:33:41;12.13;;;9.98;;
78205;SDS011;67480;48.920;12.880;2023-07-29T05:36:06;12.00;;;10.70;;
78205;SDS011;67480;48.920;12.880;2023-07-29T05:38:32;11.68;;;10.35;;
78205;SDS011;67480;48.920;12.880;2023-07-29T05:40:57;10.98;;;9.80;;
78205;SDS011;67480;48.920;12.880;2023-07-29T05:43:25;11.43;;;9.40;;
78205;SDS011;67480;48.920;12.880;2023-07-29T05:45:51;10.88;;;9.77;;
78205;SDS011;67480;48.920;12.880;2023-07-29T05:48:17;9.55;;;8.65;;
78205;SDS011;67480;48.920;12.880;2023-07-29T05:50:42;12.82;;;9.82;;
78205;SDS011;67480;48.920;12.880;2023-07-29T05:53:08;10.25;;;9.23;;
78205;SDS011;67480;48.920;12.880;2023-07-29T05:55:33;11.30;;;8.88;;
78205;SDS011;67480;48.920;12.880;2023-07-29T05:57:59;10.23;;;9.05;;
78205;SDS011;67480;48.920;12.880;2023-07-29T06:00:24;9.90;;;8.18;;
78205;SDS011;67480;48.920;12.880;2023-07-29T06:02:50;9.45;;;8.45;;
78205;SDS011;67480;48.920;12.880;2023-07-29T06:05:15;11.93;;;7.93;;
78205;SDS011;67480;48.920;12.880;2023-07-29T06:07:41;9.05;;;8.15;;
78205;SDS011;67480;48.920;12.880;2023-07-29T06:10:13;7.88;;;7.15;;
78205;SDS011;67480;48.920;12.880;2023-07-29T06:12:42;9.50;;;8.15;;
78205;SDS011;67480;48.920;12.880;2023-07-29T06:15:08;9.32;;;8.43;;
78205;SDS011;67480;48.920;12.880;2023-07-29T06:17:34;8.32;;;7.55;;
78205;SDS011;67480;48.920;12.880;2023-07-29T06:19:59;8.40;;;7.63;;
78205;SDS011;67480;48.920;12.880;2023-07-29T06:22:25;8.43;;;7.60;;
78205;SDS011;67480;48.920;12.880;2023-07-29T06:24:51;7.82;;;7.13;;
78205;SDS011;67480;48.920;12.880;2023-07-29T06:27:16;8.60;;;7.80;;
78205;SDS011;67480;48.920;12.880;2023-07-29T06:29:41;8.63;;;7.78;;
78205;SDS011;67480;48.920;12.880;2023-07-29T06:32:07;8.82;;;8.02;;
78205;SDS011;67480;48.920;12.880;2023-07-29T06:34:32;8.80;;;7.93;;
78205;SDS011;67480;48.920;12.880;2023-07-29T06:36:58;7.88;;;7.18;;
78205;SDS011;67480;48.920;12.880;2023-07-29T06:39:23;8.45;;;7.60;;
78205;SDS011;67480;48.920;12.880;2023-07-29T06:41:48;8.23;;;7.53;;
78205;SDS011;67480;48.920;12.880;2023-07-29T06:44:14;8.15;;;7.45;;
78205;SDS011;67480;48.920;12.880;2023-07-29T06:46:40;8.13;;;7.43;;
78205;SDS011;67480;48.920;12.880;2023-07-29T06:49:05;7.93;;;7.22;;
78205;SDS011;67480;48.920;12.880;2023-07-29T06:51:31;8.35;;;7.55;;
78205;SDS011;67480;48.920;12.880;2023-07-29T06:53:59;9.25;;;8.40;;
78205;SDS011;67480;48.920;12.880;2023-07-29T06:56:25;8.15;;;7.45;;
78205;SDS011;67480;48.920;12.880;2023-07-29T06:58:51;8.57;;;7.78;;
78205;SDS011;67480;48.920;12.880;2023-07-29T07:01:16;7.28;;;6.68;;
78205;SDS011;67480;48.920;12.880;2023-07-29T07:03:42;14.65;;;7.20;;
78205;SDS011;67480;48.920;12.880;2023-07-29T07:06:07;8.10;;;7.40;;
78205;SDS011;67480;48.920;12.880;2023-07-29T07:08:33;8.52;;;7.75;;
78205;SDS011;67480;48.920;12.880;2023-07-29T07:10:58;7.13;;;6.25;;
78205;SDS011;67480;48.920;12.880;2023-07-29T07:13:23;6.35;;;5.70;;
78205;SDS011;67480;48.920;12.880;2023-07-29T07:15:49;5.97;;;5.45;;
78205;SDS011;67480;48.920;12.880;2023-07-29T07:18:14;5.32;;;4.90;;
78205;SDS011;67480;48.920;12.880;2023-07-29T07:20:40;6.85;;;5.18;;
78205;SDS011;67480;48.920;12.880;2023-07-29T07:23:06;5.20;;;4.72;;
78205;SDS011;67480;48.920;12.880;2023-07-29T07:25:35;4.47;;;4.18;;
78205;SDS011;67480;48.920;12.880;2023-07-29T07:28:01;4.82;;;4.30;;
78205;SDS011;67480;48.920;12.880;2023-07-29T07:30:26;4.80;;;4.40;;
78205;SDS011;67480;48.920;12.880;2023-07-29T07:32:52;5.22;;;4.70;;
78205;SDS011;67480;48.920;12.880;2023-07-29T07:35:17;5.30;;;4.80;;
78205;SDS011;67480;48.920;12.880;2023-07-29T07:37:43;4.80;;;4.30;;
78205;SDS011;67480;48.920;12.880;2023-07-29T07:40:09;5.60;;;4.40;;
78205;SDS011;67480;48.920;12.880;2023-07-29T07:42:35;5.50;;;4.20;;
78205;SDS011;67480;48.920;12.880;2023-07-29T07:45:00;5.00;;;4.50;;
78205;SDS011;67480;48.920;12.880;2023-07-29T07:47:25;5.15;;;3.83;;
78205;SDS011;67480;48.920;12.880;2023-07-29T07:49:51;3.70;;;3.40;;
78205;SDS011;67480;48.920;12.880;2023-07-29T07:52:16;4.45;;;3.42;;
78205;SDS011;67480;48.920;12.880;2023-07-29T07:54:42;3.33;;;3.00;;
78205;SDS011;67480;48.920;12.880;2023-07-29T07:57:07;3.42;;;3.03;;
78205;SDS011;67480;48.920;12.880;2023-07-29T07:59:32;3.78;;;2.53;;
78205;SDS011;67480;48.920;12.880;2023-07-29T08:01:58;2.50;;;2.30;;
78205;SDS011;67480;48.920;12.880;2023-07-29T08:04:23;2.58;;;2.30;;
78205;SDS011;67480;48.920;12.880;2023-07-29T08:06:48;2.30;;;2.00;;
78205;SDS011;67480;48.920;12.880;2023-07-29T08:09:14;2.47;;;2.28;;
78205;SDS011;67480;48.920;12.880;2023-07-29T08:11:40;2.25;;;2.05;;
78205;SDS011;67480;48.920;12.880;2023-07-29T08:14:05;2.75;;;2.10;;
78205;SDS011;67480;48.920;12.880;2023-07-29T08:16:31;4.45;;;2.30;;
78205;SDS011;67480;48.920;12.880;2023-07-29T08:18:56;3.28;;;2.47;;
78205;SDS011;67480;48.920;12.880;2023-07-29T08:21:21;2.70;;;2.50;;
78205;SDS011;67480;48.920;12.880;2023-07-29T08:23:47;2.85;;;2.65;;
78205;SDS011;67480;48.920;12.880;2023-07-29T08:26:12;2.50;;;2.28;;
78205;SDS011;67480;48.920;12.880;2023-07-29T08:28:38;2.53;;;1.85;;
78205;SDS011;67480;48.920;12.880;2023-07-29T08:31:04;2.30;;;2.10;;
78205;SDS011;67480;48.920;12.880;2023-07-29T08:33:31;4.88;;;2.50;;
78205;SDS011;67480;48.920;12.880;2023-07-29T08:35:58;3.28;;;2.28;;
78205;SDS011;67480;48.920;12.880;2023-07-29T08:38:24;2.40;;;2.20;;
78205;SDS011;67480;48.920;12.880;2023-07-29T08:41:12;3.22;;;2.35;;
78205;SDS011;67480;48.920;12.880;2023-07-29T08:43:48;2.50;;;2.30;;
78205;SDS011;67480;48.920;12.880;2023-07-29T08:46:21;2.30;;;2.10;;
78205;SDS011;67480;48.920;12.880;2023-07-29T08:48:47;3.05;;;2.08;;
78205;SDS011;67480;48.920;12.880;2023-07-29T08:51:13;2.03;;;1.85;;
78205;SDS011;67480;48.920;12.880;2023-07-29T08:53:40;3.40;;;2.40;;
78205;SDS011;67480;48.920;12.880;2023-07-29T08:56:07;2.47;;;2.15;;
78205;SDS011;67480;48.920;12.880;2023-07-29T08:58:33;3.50;;;2.35;;
78205;SDS011;67480;48.920;12.880;2023-07-29T09:00:59;2.85;;;2.40;;
78205;SDS011;67480;48.920;12.880;2023-07-29T09:03:25;5.68;;;2.50;;
78205;SDS011;67480;48.920;12.880;2023-07-29T09:05:51;3.20;;;2.88;;
78205;SDS011;67480;48.920;12.880;2023-07-29T09:08:17;2.97;;;2.78;;
78205;SDS011;67480;48.920;12.880;2023-07-29T09:10:43;6.68;;;2.78;;
78205;SDS011;67480;48.920;12.880;2023-07-29T09:13:08;8.45;;;2.95;;
78205;SDS011;67480;48.920;12.880;2023-07-29T09:15:34;3.75;;;2.85;;
78205;SDS011;67480;48.920;12.880;2023-07-29T09:23:23;4.15;;;3.17;;
78205;SDS011;67480;48.920;12.880;2023-07-29T09:25:49;3.28;;;2.97;;
78205;SDS011;67480;48.920;12.880;2023-07-29T09:28:15;2.85;;;2.58;;
78205;SDS011;67480;48.920;12.880;2023-07-29T09:30:42;4.13;;;3.40;;
78205;SDS011;67480;48.920;12.880;2023-07-29T09:33:09;4.38;;;3.85;;
78205;SDS011;67480;48.920;12.880;2023-07-29T09:35:35;5.97;;;3.63;;
78205;SDS011;67480;48.920;12.880;2023-07-29T09:38:05;3.72;;;3.38;;
78205;SDS011;67480;48.920;12.880;2023-07-29T09:40:35;5.38;;;4.88;;
78205;SDS011;67480;48.920;12.880;2023-07-29T09:43:02;4.95;;;3.92;;
78205;SDS011;67480;48.920;12.880;2023-07-29T09:45:33;13.05;;;4.60;;
78205;SDS011;67480;48.920;12.880;2023-07-29T09:48:00;3.00;;;2.70;;
78205;SDS011;67480;48.920;12.880;2023-07-29T09:50:26;3.47;;;3.00;;
78205;SDS011;67480;48.920;12.880;2023-07-29T09:52:54;3.55;;;2.42;;
78205;SDS011;67480;48.920;12.880;2023-07-29T09:55:24;3.35;;;2.30;;
78205;SDS011;67480;48.920;12.880;2023-07-29T09:57:56;6.05;;;3.45;;
78205;SDS011;67480;48.920;12.880;2023-07-29T10:02:50;1.70;;;1.60;;
78205;SDS011;67480;48.920;12.880;2023-07-29T10:05:17;3.33;;;2.00;;
78205;SDS011;67480;48.920;12.880;2023-07-29T10:07:42;1.90;;;1.70;;
78205;SDS011;67480;48.920;12.880;2023-07-29T10:10:09;2.33;;;1.63;;
78205;SDS011;67480;48.920;12.880;2023-07-29T10:12:36;2.47;;;2.20;;
78205;SDS011;67480;48.920;12.880;2023-07-29T10:15:05;2.65;;;2.00;;
78205;SDS011;67480;48.920;12.880;2023-07-29T10:17:37;1.92;;;1.73;;
78205;SDS011;67480;48.920;12.880;2023-07-29T10:20:05;5.57;;;2.83;;
78205;SDS011;67480;48.920;12.880;2023-07-29T10:22:39;2.95;;;2.00;;
78205;SDS011;67480;48.920;12.880;2023-07-29T10:25:16;4.28;;;2.15;;
78205;SDS011;67480;48.920;12.880;2023-07-29T10:30:17;2.58;;;1.38;;
78205;SDS011;67480;48.920;12.880;2023-07-29T10:32:43;5.13;;;4.63;;
78205;SDS011;67480;48.920;12.880;2023-07-29T10:35:10;1.73;;;1.17;;
78205;SDS011;67480;48.920;12.880;2023-07-29T10:37:36;1.20;;;1.10;;
78205;SDS011;67480;48.920;12.880;2023-07-29T10:40:05;1.55;;;1.40;;
78205;SDS011;67480;48.920;12.880;2023-07-29T10:42:32;0.93;;;0.90;;
78205;SDS011;67480;48.920;12.880;2023-07-29T10:44:57;2.55;;;1.20;;
78205;SDS011;67480;48.920;12.880;2023-07-29T10:47:27;2.53;;;0.90;;
78205;SDS011;67480;48.920;12.880;2023-07-29T10:49:57;1.67;;;1.23;;
78205;SDS011;67480;48.920;12.880;2023-07-29T10:52:31;1.30;;;1.20;;
78205;SDS011;67480;48.920;12.880;2023-07-29T10:54:59;1.35;;;1.00;;
78205;SDS011;67480;48.920;12.880;2023-07-29T10:57:35;0.88;;;0.88;;
78205;SDS011;67480;48.920;12.880;2023-07-29T11:00:03;1.98;;;1.00;;
78205;SDS011;67480;48.920;12.880;2023-07-29T11:05:06;1.63;;;1.10;;
78205;SDS011;67480;48.920;12.880;2023-07-29T11:07:49;1.55;;;1.40;;
78205;SDS011;67480;48.920;12.880;2023-07-29T11:10:15;5.45;;;2.15;;
78205;SDS011;67480;48.920;12.880;2023-07-29T11:12:44;9.30;;;1.85;;
78205;SDS011;67480;48.920;12.880;2023-07-29T11:17:41;2.40;;;1.10;;
78205;SDS011;67480;48.920;12.880;2023-07-29T11:22:37;1.80;;;1.40;;
78205;SDS011;67480;48.920;12.880;2023-07-29T11:25:03;3.33;;;1.40;;
78205;SDS011;67480;48.920;12.880;2023-07-29T11:27:30;1.70;;;1.52;;
78205;SDS011;67480;48.920;12.880;2023-07-29T11:29:58;2.63;;;1.30;;
78205;SDS011;67480;48.920;12.880;2023-07-29T11:32:30;3.05;;;1.70;;
78205;SDS011;67480;48.920;12.880;2023-07-29T11:34:55;5.07;;;1.38;;
78205;SDS011;67480;48.920;12.880;2023-07-29T11:37:21;2.78;;;1.38;;
78205;SDS011;67480;48.920;12.880;2023-07-29T11:39:47;1.65;;;1.35;;
78205;SDS011;67480;48.920;12.880;2023-07-29T11:42:13;2.92;;;1.30;;
78205;SDS011;67480;48.920;12.880;2023-07-29T11:44:39;2.58;;;1.63;;
78205;SDS011;67480;48.920;12.880;2023-07-29T11:47:08;2.85;;;1.40;;
78205;SDS011;67480;48.920;12.880;2023-07-29T11:49:35;2.47;;;1.40;;
78205;SDS011;67480;48.920;12.880;2023-07-29T11:52:03;1.60;;;1.40;;
78205;SDS011;67480;48.920;12.880;2023-07-29T11:54:32;1.70;;;1.20;;
78205;SDS011;67480;48.920;12.880;2023-07-29T11:56:59;2.15;;;1.35;;
78205;SDS011;67480;48.920;12.880;2023-07-29T11:59:25;2.13;;;1.25;;
78205;SDS011;67480;48.920;12.880;2023-07-29T12:01:50;2.85;;;1.50;;
78205;SDS011;67480;48.920;12.880;2023-07-29T12:04:16;1.83;;;1.70;;
78205;SDS011;67480;48.920;12.880;2023-07-29T12:06:42;1.95;;;1.50;;
78205;SDS011;67480;48.920;12.880;2023-07-29T12:09:08;1.70;;;1.40;;
78205;SDS011;67480;48.920;12.880;2023-07-29T12:11:34;1.98;;;1.50;;
78205;SDS011;67480;48.920;12.880;2023-07-29T12:14:00;2.22;;;1.67;;
78205;SDS011;67480;48.920;12.880;2023-07-29T12:16:28;2.20;;;1.50;;
78205;SDS011;67480;48.920;12.880;2023-07-29T12:21:25;1.85;;;1.58;;
78205;SDS011;67480;48.920;12.880;2023-07-29T12:23:50;2.17;;;1.98;;
78205;SDS011;67480;48.920;12.880;2023-07-29T12:26:16;1.70;;;1.60;;
78205;SDS011;67480;48.920;12.880;2023-07-29T12:28:45;2.45;;;1.80;;
78205;SDS011;67480;48.920;12.880;2023-07-29T12:31:11;2.63;;;1.70;;
78205;SDS011;67480;48.920;12.880;2023-07-29T12:33:36;2.35;;;1.75;;
78205;SDS011;67480;48.920;12.880;2023-07-29T12:36:07;2.22;;;1.90;;
78205;SDS011;67480;48.920;12.880;2023-07-29T12:38:32;2.50;;;1.83;;
78205;SDS011;67480;48.920;12.880;2023-07-29T12:40:58;1.85;;;1.55;;
78205;SDS011;67480;48.920;12.880;2023-07-29T12:43:24;3.83;;;2.80;;
78205;SDS011;67480;48.920;12.880;2023-07-29T12:45:50;2.78;;;2.58;;
78205;SDS011;67480;48.920;12.880;2023-07-29T12:48:16;2.95;;;2.75;;
78205;SDS011;67480;48.920;12.880;2023-07-29T12:50:41;2.95;;;2.65;;
78205;SDS011;67480;48.920;12.880;2023-07-29T12:53:08;2.70;;;2.50;;
78205;SDS011;67480;48.920;12.880;2023-07-29T12:55:36;3.33;;;2.63;;
78205;SDS011;67480;48.920;12.880;2023-07-29T12:58:02;3.50;;;2.80;;
78205;SDS011;67480;48.920;12.880;2023-07-29T13:00:28;3.60;;;3.30;;
78205;SDS011;67480;48.920;12.880;2023-07-29T13:02:54;3.28;;;2.70;;
78205;SDS011;67480;48.920;12.880;2023-07-29T13:05:19;3.00;;;2.70;;
78205;SDS011;67480;48.920;12.880;2023-07-29T13:07:45;3.47;;;3.17;;
78205;SDS011;67480;48.920;12.880;2023-07-29T13:10:11;2.50;;;2.30;;
78205;SDS011;67480;48.920;12.880;2023-07-29T13:12:37;2.53;;;2.15;;
78205;SDS011;67480;48.920;12.880;2023-07-29T13:15:02;3.97;;;3.13;;
78205;SDS011;67480;48.920;12.880;2023-07-29T13:17:28;4.00;;;2.97;;
78205;SDS011;67480;48.920;12.880;2023-07-29T13:19:54;3.15;;;2.85;;
78205;SDS011;67480;48.920;12.880;2023-07-29T13:22:19;3.47;;;2.55;;
78205;SDS011;67480;48.920;12.880;2023-07-29T13:24:45;3.78;;;2.78;;
78205;SDS011;67480;48.920;12.880;2023-07-29T13:27:11;4.20;;;3.08;;
78205;SDS011;67480;48.920;12.880;2023-07-29T13:29:36;4.00;;;3.03;;
78205;SDS011;67480;48.920;12.880;2023-07-29T13:32:02;3.67;;;2.88;;
78205;SDS011;67480;48.920;12.880;2023-07-29T13:34:27;3.75;;;3.40;;
78205;SDS011;67480;48.920;12.880;2023-07-29T13:36:53;4.20;;;2.83;;
78205;SDS011;67480;48.920;12.880;2023-07-29T13:39:18;3.42;;;2.78;;
78205;SDS011;67480;48.920;12.880;2023-07-29T13:41:44;3.88;;;3.40;;
78205;SDS011;67480;48.920;12.880;2023-07-29T13:44:09;3.55;;;3.13;;
78205;SDS011;67480;48.920;12.880;2023-07-29T13:46:34;4.85;;;3.20;;
78205;SDS011;67480;48.920;12.880;2023-07-29T13:49:00;3.67;;;3.38;;
78205;SDS011;67480;48.920;12.880;2023-07-29T13:51:29;3.95;;;3.60;;
78205;SDS011;67480;48.920;12.880;2023-07-29T13:53:54;3.85;;;3.35;;
78205;SDS011;67480;48.920;12.880;2023-07-29T13:56:21;5.43;;;3.75;;
78205;SDS011;67480;48.920;12.880;2023-07-29T13:58:47;4.05;;;3.40;;
78205;SDS011;67480;48.920;12.880;2023-07-29T14:01:12;4.65;;;2.47;;
78205;SDS011;67480;48.920;12.880;2023-07-29T14:03:38;4.95;;;2.60;;
78205;SDS011;67480;48.920;12.880;2023-07-29T14:06:03;3.17;;;2.42;;
78205;SDS011;67480;48.920;12.880;2023-07-29T14:08:28;2.85;;;2.20;;
78205;SDS011;67480;48.920;12.880;2023-07-29T14:10:54;3.17;;;2.22;;
78205;SDS011;67480;48.920;12.880;2023-07-29T14:13:19;2.30;;;2.00;;
78205;SDS011;67480;48.920;12.880;2023-07-29T14:15:44;3.13;;;2.40;;
78205;SDS011;67480;48.920;12.880;2023-07-29T14:18:11;2.20;;;1.90;;
78205;SDS011;67480;48.920;12.880;2023-07-29T14:20:36;2.28;;;2.08;;
78205;SDS011;67480;48.920;12.880;2023-07-29T14:23:02;1.77;;;1.67;;
78205;SDS011;67480;48.920;12.880;2023-07-29T14:25:27;2.67;;;1.92;;
78205;SDS011;67480;48.920;12.880;2023-07-29T14:27:52;1.90;;;1.70;;
78205;SDS011;67480;48.920;12.880;2023-07-29T14:30:21;2.38;;;2.17;;
78205;SDS011;67480;48.920;12.880;2023-07-29T14:32:48;6.78;;;2.00;;
78205;SDS011;67480;48.920;12.880;2023-07-29T14:35:13;1.90;;;1.60;;
78205;SDS011;67480;48.920;12.880;2023-07-29T14:37:38;2.03;;;1.83;;
78205;SDS011;67480;48.920;12.880;2023-07-29T14:40:04;2.53;;;2.30;;
78205;SDS011;67480;48.920;12.880;2023-07-29T14:42:30;2.83;;;2.30;;
78205;SDS011;67480;48.920;12.880;2023-07-29T14:44:55;2.35;;;1.90;;
78205;SDS011;67480;48.920;12.880;2023-07-29T14:47:21;2.10;;;1.90;;
78205;SDS011;67480;48.920;12.880;2023-07-29T14:49:46;2.13;;;1.92;;
78205;SDS011;67480;48.920;12.880;2023-07-29T14:52:12;2.17;;;1.65;;
78205;SDS011;67480;48.920;12.880;2023-07-29T14:54:37;2.22;;;1.45;;